🇳🇱 VeloStatistics

👤 Tomasz Lesniak

NationaliteitPOL
Geboortedatum1979-10-03
Overlijdensdatum -
Lengte / Gewicht?? cm / ?? kg
Profzeges0
Profzeges 20260
Wedstrijddagen84

🚴 Ploegenhistorie

PloegCodeJaar
Weltour - Radio Katowice - Ambra WEL 2003
Ambra - Obuwie - SNC Odziez AMC 2002

🏆 Resultaten (40)

Datum Pos Wedstrijd UCI Ploeg
2007-08-04 16 2007 | Tour of Malopolska, POL (4.8) 2.2 -
2007-08-04 2 2007 | Tour of Malopolska, POL | Rit 3 (4.8) 2.2 -
2007-07-27 1 2007 | Tour of Hungary, HUN | Rit 4 (27.7) 2.2 -
2007-07-26 7 2007 | Tour of Hungary, HUN | Rit 3 (26.7) 2.2 -
2007-07-25 7 2007 | Tour of Hungary, HUN | Rit 2 (25.7) 2.2 -
2007-07-04 6 2007 | Course de Solidarnosc et des Champions Olympiques, POL | Rit 1 (4.7) 2.1 -
2007-07-01 20 2007 | N.K. Polen, POL (1.7) NC -
2007-06-10 7 2007 | Baltyk Karkonosze Tour, POL | Rit 8 (10.6) 2.2 -
2007-06-09 4 2007 | Baltyk Karkonosze Tour, POL | Rit 7 (9.6) 2.2 -
2007-06-07 9 2007 | Baltyk Karkonosze Tour, POL | Rit 3 (7.6) 2.2 -
2006-08-26 20 2006 | Szlakiem Walk Majora Hubala, POL (26.8) 1.2 -
2006-06-04 10 2006 | Riga G.P., LAT (4.6) 1.2 -
2006-04-08 3 2006 | Tour of Hellas, GRE | Rit 4 (8.4) 2.2 -
2006-03-11 4 2006 | Tour of Taiwan, TPE | Rit 7 (11.3) 2.2 -
2005-11-02 4 2005 | Tour of Taiwan, TPE | Rit 5 (2.11) 2.2 -
2005-10-29 4 2005 | Tour of Taiwan, TPE | Rit 1 (29.10) 2.2 -
2005-08-06 9 2005 | Tour of Malopolska, POL (6.8) 2.2 -
2005-08-06 3 2005 | Tour of Malopolska, POL | Rit 3 (6.8) 2.2 -
2005-08-04 5 2005 | Tour of Malopolska, POL | Rit 1 (4.8) 2.2 -
2005-07-30 3 2005 | Tour of China, CHN | Rit 3 (30.7) 2.2 -
2005-07-01 4 2005 | Course de Solidarnosc et des Champions Olympiques, POL | Rit 4 (1.7) 2.1 -
2005-06-30 9 2005 | Course de Solidarnosc et des Champions Olympiques, POL | Rit 3 (30.6) 2.1 -
2005-06-26 9 2005 | N.K. Polen, POL (26.6) NC -
2005-06-16 4 2005 | G.P. de Beauce, CDN | Rit 3 (16.6) 2.2 -
2004-10-31 1 2004 | Tour of China, CHN | Rit 4 (31.10) 2.5 -
2004-10-29 2 2004 | Tour of China, CHN | Rit 2 (29.10) 2.5 -
2004-09-14 4 2004 | Tour de Bulgarie, BUL | Rit 3 (14.9) 2.5 -
2004-08-07 10 2004 | Tour of Malopolska, POL (7.8) 2.5 -
2004-08-07 5 2004 | Tour of Malopolska, POL | Rit 3 (7.8) 2.5 -
2004-07-04 9 2004 | Course de Solidarnosc et des Champions Olympiques, POL | Rit 6 (4.7) 2.3 -
2004-06-10 5 2004 | Baltyk Karkonosze Tour, POL | Rit 3 (10.6) 2.5 -
2004-05-03 13 2004 | 3 Majowy Wyscig Klasyczny Lubin, POL (3.5) 1.5 -
2003-07-06 8 2003 | Course de Solidarnosc et des Champions Olympiques, POL | Rit 7 (6.7) 2.3 -
2003-07-05 8 2003 | Course de Solidarnosc et des Champions Olympiques, POL | Rit 6 (5.7) 2.3 -
2003-06-11 4 2003 | Baltyk Karkonosze Tour, POL | Rit 6 (11.6) 2.5 -
2002-07-14 4 2002 | Karp Milicki, POL (14.7) 1.5 -
2001-08-12 10 2001 | Tour of Malopolska, POL (12.8) Nat -
2001-08-11 2 2001 | Tour of Malopolska, POL | Rit 3 (11.8) Nat -
2000-07-29 2 2000 | Dookola Mazowsza, POL | Rit 4 (29.7) 2.5 -
2000-05-01 14 2000 | G.P. Weltour, POL (1.5) 1.5 -